Accueil
METAR-TAF:

METAR-TAF

Aéroports :

Aéroport de Bristol

Bristol, Angleterre

latitude: 51-23N, longitude: 002-43W, altitude: 189 m

Observation

Le bulletin a été fait il y a 19 minutes, à 23:20 UTC
Vent 7 kt de nord
Température 15°C
Humidité 72%
Pression 1026 hPa
Visibilité 10 km ou plus

METAR: EGGD 232320Z AUTO 36007KT 9999 NCD 15/10 Q1026

Heure: 00:39 (23:39 UTC)

Prévision

Le bulletin a été fait il y a 46 minutes, à 22:53 UTC
Prévision valable du 24 à 00 UTC au 24 à 24 UTC
Vent 5 kt de nord/nord-est
Visibilité 10 km ou plus
pas de nuages en-dessous de 1500 mètres et pas de cumulonimbus.

TAF: EGGD 232253Z 2400/2424 02005KT CAVOK

Observations et prévisions météorologiques de plus de 4000 aéroports (messages METAR et TAF).

Les stations disponibles sont représentées par des disques jaunes et rouges sur la carte.

Passer la souris dessus pour voir le nom de la station.

Cliquer dessus pour voir les observations et prévisions météorologiques.

Pour changer de carte: cliquez sur les boutons verts avec une croix noire pour zoomer, sur le bouton vert avec un tiret pour effectuer un zoom arrière, ou sur les flèches vertes pour les cartes adjacentes.


METAR-TAF: